Baxter, Kentucky
Current Conditions -  °F | °C
As of 1:35 PM on Saturday 25 Oct 2014 (Local Time) from KI35 Reporting Station
Overcast Overcast  
Wind Chill: 63°   Ceiling: 5000
Heat Index: 63°   Visibility: 10mi
Dew Point: 45°   Wind: 0mph
Humidity: 52%   Direction: NA
Pressure: 30.05"   Gusts: NA
Location:  36.86°N, 83.33°W
Report Text: KI35 251735Z AUTO 00000KT 10SM SCT044 OVC050 17/07 A3005 RMK AO1
Loading
Personal Weather Stations






























Interactive Weather Map
Tropical Storm Tracking
New forecast layout! Learn more

10-Day Weather Forecast

Advertisements
Track Severe Weather on mobile